createdAt,value
2023-05-19T08:46:25.406Z,17.20
2023-05-19T08:52:24.298Z,12.35
2023-05-19T08:57:46.773Z,11.40
2023-05-19T09:03:18.037Z,13.52
2023-05-19T09:14:07.416Z,16.30
2023-05-19T09:19:30.353Z,12.95
2023-05-19T09:24:53.485Z,11.75
2023-05-19T09:30:17.307Z,5.25
2023-05-19T09:35:39.112Z,9.30
2023-05-19T09:41:02.042Z,8.38
2023-05-19T09:46:28.607Z,10.95
2023-05-19T09:51:55.086Z,5.00
2023-05-19T09:57:17.272Z,4.88
2023-05-19T10:02:43.086Z,8.02
2023-05-19T10:08:07.516Z,6.00
2023-05-19T10:13:31.111Z,8.50
2023-05-19T10:18:55.693Z,6.65
2023-05-19T10:24:18.625Z,7.83
2023-05-19T10:29:47.906Z,9.27
2023-05-19T10:35:36.387Z,6.93
2023-05-19T10:41:08.066Z,7.63
2023-05-19T10:46:31.504Z,6.10
2023-05-19T10:51:57.094Z,6.32
2023-05-19T10:57:20.860Z,8.63
2023-05-19T11:02:44.328Z,6.30
2023-05-19T11:08:08.359Z,10.02
2023-05-19T11:13:30.232Z,7.10
2023-05-19T11:18:54.826Z,7.22
2023-05-19T11:24:38.114Z,6.87
2023-05-19T11:30:15.197Z,8.20
2023-05-19T11:35:37.784Z,10.80
2023-05-19T11:41:01.241Z,7.25
2023-05-19T11:46:23.259Z,8.85
2023-05-19T11:51:46.317Z,10.30
2023-05-19T11:57:10.648Z,19.02
2023-05-19T12:02:32.519Z,8.55
2023-05-19T12:07:54.667Z,10.18
2023-05-19T12:13:16.801Z,11.05
2023-05-19T12:18:39.148Z,11.93
2023-05-19T12:24:01.269Z,7.40
2023-05-19T12:29:28.155Z,6.25
2023-05-19T12:34:50.379Z,7.10
2023-05-19T12:40:17.014Z,8.20
2023-05-19T12:45:42.888Z,9.43
2023-05-19T12:51:05.850Z,6.57
2023-05-19T12:56:27.704Z,4.13
2023-05-19T13:01:59.334Z,5.88
2023-05-19T13:07:21.347Z,8.60
2023-05-19T13:12:43.170Z,9.20
2023-05-19T13:18:06.600Z,3.97
2023-05-19T13:23:28.470Z,5.70
2023-05-19T13:28:50.337Z,7.25
2023-05-19T13:34:12.199Z,5.82
2023-05-19T13:39:34.046Z,7.65
2023-05-19T13:44:56.886Z,7.28
2023-05-19T13:50:19.166Z,6.70
2023-05-19T13:55:41.157Z,5.80
2023-05-19T14:01:03.010Z,4.97
2023-05-19T14:06:25.108Z,5.05
2023-05-19T14:11:48.143Z,6.88
2023-05-19T14:17:09.991Z,8.63
2023-05-19T14:22:31.812Z,3.83
2023-05-19T14:27:53.628Z,4.03
2023-05-19T14:33:15.542Z,5.18
2023-05-19T14:38:37.412Z,4.43
2023-05-19T14:43:59.283Z,5.93
2023-05-19T14:49:21.099Z,5.63
2023-05-19T14:54:42.946Z,5.72
2023-05-19T15:00:05.411Z,6.40
2023-05-19T15:05:27.268Z,7.47
2023-05-19T15:10:50.646Z,6.35
2023-05-19T15:16:22.272Z,4.47
2023-05-19T15:21:45.890Z,7.60
2023-05-19T15:27:08.952Z,8.77
2023-05-19T15:32:31.172Z,7.35
2023-05-19T15:37:53.017Z,3.78
2023-05-19T15:43:15.028Z,8.75
2023-05-19T15:48:37.115Z,6.82
2023-05-19T15:53:58.961Z,11.77
2023-05-19T15:59:20.867Z,10.70
2023-05-19T16:04:42.715Z,14.65
2023-05-19T16:10:04.905Z,5.63
2023-05-19T16:15:26.854Z,10.02
2023-05-19T16:20:48.762Z,9.63
2023-05-19T16:26:10.724Z,20.27
2023-05-19T16:31:32.590Z,17.23
2023-05-19T16:36:54.442Z,22.38
2023-05-19T16:42:16.763Z,23.38
2023-05-19T16:47:38.837Z,22.27
2023-05-19T16:53:00.954Z,14.48
2023-05-19T16:58:22.837Z,17.08
2023-05-19T17:03:44.702Z,17.13
2023-05-19T17:09:06.619Z,10.25
2023-05-19T17:14:28.484Z,10.25
2023-05-19T17:19:50.314Z,12.88
2023-05-19T17:25:12.425Z,10.77
2023-05-19T17:30:35.026Z,10.07
2023-05-19T17:35:57.034Z,11.20
2023-05-19T17:41:19.053Z,8.52
2023-05-19T17:46:41.335Z,7.93
2023-05-19T17:52:03.559Z,10.00
2023-05-19T17:57:29.490Z,8.27
2023-05-19T18:02:52.009Z,7.43
2023-05-19T18:08:14.116Z,12.57
2023-05-19T18:13:37.379Z,8.18
2023-05-19T18:18:59.309Z,9.77
2023-05-19T18:24:21.242Z,8.68
2023-05-19T18:29:43.098Z,7.65
2023-05-19T18:35:05.352Z,7.00
2023-05-19T18:40:27.209Z,9.57
2023-05-19T18:45:49.126Z,13.73
2023-05-19T18:51:11.188Z,9.23
2023-05-19T18:56:33.499Z,7.82
2023-05-19T19:01:55.519Z,8.80
2023-05-19T19:07:19.718Z,5.82
2023-05-19T19:12:41.516Z,7.20
2023-05-19T19:18:04.572Z,8.27
2023-05-19T19:23:28.068Z,8.82
2023-05-19T19:28:50.051Z,5.97
2023-05-19T19:34:11.988Z,8.40
2023-05-19T19:39:33.827Z,7.55
2023-05-19T19:44:56.320Z,8.48
2023-05-19T19:50:18.309Z,8.45
2023-05-19T19:55:40.251Z,9.85
2023-05-19T20:01:03.566Z,8.52
2023-05-19T20:06:25.551Z,8.18
2023-05-19T20:11:47.386Z,7.60
2023-05-19T20:17:09.307Z,8.63
2023-05-19T20:22:31.174Z,12.45
2023-05-19T20:27:53.168Z,13.57
2023-05-19T20:33:14.982Z,10.25
2023-05-19T20:38:36.795Z,9.68
2023-05-19T20:43:58.722Z,13.93
2023-05-19T20:49:21.184Z,8.32
2023-05-19T20:54:43.154Z,4.80
2023-05-19T21:00:05.443Z,7.72
2023-05-19T21:05:27.261Z,5.45
2023-05-19T21:10:49.225Z,4.50
2023-05-19T21:16:11.043Z,7.97
2023-05-19T21:21:33.784Z,3.97
2023-05-19T21:26:55.668Z,6.50
2023-05-19T21:32:18.091Z,8.02
2023-05-19T21:37:40.295Z,6.10
2023-05-19T21:43:02.111Z,7.63
2023-05-19T21:48:24.042Z,5.30
2023-05-19T21:53:45.999Z,8.18
2023-05-19T21:59:08.066Z,3.75
2023-05-19T22:04:31.761Z,7.65
2023-05-19T22:09:54.247Z,3.17
2023-05-19T22:15:16.211Z,6.25
2023-05-19T22:20:38.161Z,6.50
2023-05-19T22:26:00.006Z,8.98
2023-05-19T22:31:21.954Z,5.47
2023-05-19T22:36:46.230Z,6.35
2023-05-19T22:42:08.140Z,4.65
2023-05-19T22:47:30.306Z,4.93
2023-05-19T22:52:52.173Z,4.93
2023-05-19T22:58:14.567Z,5.68
2023-05-19T23:03:36.454Z,4.80
2023-05-19T23:09:02.539Z,5.75
2023-05-19T23:14:26.112Z,6.82
2023-05-19T23:19:47.970Z,4.88
2023-05-19T23:25:10.073Z,4.72
2023-05-19T23:30:33.230Z,5.57
2023-05-19T23:35:55.019Z,6.35
2023-05-19T23:41:16.807Z,4.05
2023-05-19T23:46:38.665Z,3.80
2023-05-19T23:52:00.647Z,4.47
2023-05-19T23:57:22.325Z,4.72
